sensor_id;sensor_type;location;lat;lon;timestamp;temperature;humidity
25320;DHT22;13256;49.012;8.610;2024-03-02T00:00:49;4.40;99.90
25320;DHT22;13256;49.012;8.610;2024-03-02T00:03:17;4.40;99.90
25320;DHT22;13256;49.012;8.610;2024-03-02T00:05:48;4.30;99.90
25320;DHT22;13256;49.012;8.610;2024-03-02T00:08:15;4.30;99.90
25320;DHT22;13256;49.012;8.610;2024-03-02T00:10:51;4.30;99.90
25320;DHT22;13256;49.012;8.610;2024-03-02T00:13:22;4.30;99.90
25320;DHT22;13256;49.012;8.610;2024-03-02T00:15:53;4.20;99.90
25320;DHT22;13256;49.012;8.610;2024-03-02T00:20:55;4.10;99.90
25320;DHT22;13256;49.012;8.610;2024-03-02T00:23:23;4.00;99.90
25320;DHT22;13256;49.012;8.610;2024-03-02T00:25:52;4.10;99.90
25320;DHT22;13256;49.012;8.610;2024-03-02T00:28:23;4.00;99.90
25320;DHT22;13256;49.012;8.610;2024-03-02T00:30:58;4.00;99.90
25320;DHT22;13256;49.012;8.610;2024-03-02T00:33:30;4.00;99.90
25320;DHT22;13256;49.012;8.610;2024-03-02T00:35:57;4.00;99.90
25320;DHT22;13256;49.012;8.610;2024-03-02T00:38:48;4.00;99.90
25320;DHT22;13256;49.012;8.610;2024-03-02T00:46:20;4.00;99.90
25320;DHT22;13256;49.012;8.610;2024-03-02T00:51:16;3.90;99.90
25320;DHT22;13256;49.012;8.610;2024-03-02T00:53:44;4.00;99.90
25320;DHT22;13256;49.012;8.610;2024-03-02T00:56:11;4.00;99.90
25320;DHT22;13256;49.012;8.610;2024-03-02T00:58:44;4.00;99.90
25320;DHT22;13256;49.012;8.610;2024-03-02T01:01:10;4.00;99.90
25320;DHT22;13256;49.012;8.610;2024-03-02T01:03:38;4.00;99.90
25320;DHT22;13256;49.012;8.610;2024-03-02T01:06:05;4.00;99.90
25320;DHT22;13256;49.012;8.610;2024-03-02T01:08:45;4.00;99.90
25320;DHT22;13256;49.012;8.610;2024-03-02T01:11:12;4.00;99.90
25320;DHT22;13256;49.012;8.610;2024-03-02T01:13:42;3.90;99.90
25320;DHT22;13256;49.012;8.610;2024-03-02T01:16:08;3.90;99.90
25320;DHT22;13256;49.012;8.610;2024-03-02T01:18:38;3.90;99.90
25320;DHT22;13256;49.012;8.610;2024-03-02T01:21:05;3.90;99.90
25320;DHT22;13256;49.012;8.610;2024-03-02T01:23:32;3.90;99.90
25320;DHT22;13256;49.012;8.610;2024-03-02T01:26:01;3.90;99.90
25320;DHT22;13256;49.012;8.610;2024-03-02T01:28:27;3.90;99.90
25320;DHT22;13256;49.012;8.610;2024-03-02T01:30:56;3.90;99.90
25320;DHT22;13256;49.012;8.610;2024-03-02T01:33:47;3.90;99.90
25320;DHT22;13256;49.012;8.610;2024-03-02T01:36:17;3.90;99.90
25320;DHT22;13256;49.012;8.610;2024-03-02T01:38:43;3.90;99.90
25320;DHT22;13256;49.012;8.610;2024-03-02T01:41:10;3.90;99.90
25320;DHT22;13256;49.012;8.610;2024-03-02T01:43:39;3.90;99.90
25320;DHT22;13256;49.012;8.610;2024-03-02T01:46:08;3.80;99.90
25320;DHT22;13256;49.012;8.610;2024-03-02T01:48:39;3.80;99.90
25320;DHT22;13256;49.012;8.610;2024-03-02T01:51:07;3.80;99.90
25320;DHT22;13256;49.012;8.610;2024-03-02T01:53:34;3.80;99.90
25320;DHT22;13256;49.012;8.610;2024-03-02T01:56:01;3.70;99.90
25320;DHT22;13256;49.012;8.610;2024-03-02T01:58:30;3.60;99.90
25320;DHT22;13256;49.012;8.610;2024-03-02T02:00:57;3.50;99.90
25320;DHT22;13256;49.012;8.610;2024-03-02T02:03:28;3.40;99.90
25320;DHT22;13256;49.012;8.610;2024-03-02T02:12:00;3.30;99.90
25320;DHT22;13256;49.012;8.610;2024-03-02T02:14:27;3.30;99.90
25320;DHT22;13256;49.012;8.610;2024-03-02T02:16:56;3.20;99.90
25320;DHT22;13256;49.012;8.610;2024-03-02T02:19:22;3.20;99.90
25320;DHT22;13256;49.012;8.610;2024-03-02T02:22:32;3.20;99.90
25320;DHT22;13256;49.012;8.610;2024-03-02T02:24:59;3.20;99.90
25320;DHT22;13256;49.012;8.610;2024-03-02T02:27:26;3.30;99.90
25320;DHT22;13256;49.012;8.610;2024-03-02T02:29:54;3.30;99.90
25320;DHT22;13256;49.012;8.610;2024-03-02T02:32:22;3.30;99.90
25320;DHT22;13256;49.012;8.610;2024-03-02T02:34:52;3.30;99.90
25320;DHT22;13256;49.012;8.610;2024-03-02T02:37:21;3.30;99.90
25320;DHT22;13256;49.012;8.610;2024-03-02T02:39:51;3.20;99.90
25320;DHT22;13256;49.012;8.610;2024-03-02T02:42:18;3.20;99.90
25320;DHT22;13256;49.012;8.610;2024-03-02T02:44:45;3.10;99.90
25320;DHT22;13256;49.012;8.610;2024-03-02T02:47:14;3.10;99.90
25320;DHT22;13256;49.012;8.610;2024-03-02T02:49:41;3.10;99.90
25320;DHT22;13256;49.012;8.610;2024-03-02T02:52:08;3.10;99.90
25320;DHT22;13256;49.012;8.610;2024-03-02T02:54:37;3.10;99.90
25320;DHT22;13256;49.012;8.610;2024-03-02T02:57:07;3.10;99.90
25320;DHT22;13256;49.012;8.610;2024-03-02T02:59:36;3.10;99.90
25320;DHT22;13256;49.012;8.610;2024-03-02T03:02:04;3.10;99.90
25320;DHT22;13256;49.012;8.610;2024-03-02T03:04:31;3.10;99.90
25320;DHT22;13256;49.012;8.610;2024-03-02T03:06:58;3.10;99.90
25320;DHT22;13256;49.012;8.610;2024-03-02T03:09:26;3.00;99.90
25320;DHT22;13256;49.012;8.610;2024-03-02T03:11:54;3.00;99.90
25320;DHT22;13256;49.012;8.610;2024-03-02T03:14:20;2.90;99.90
25320;DHT22;13256;49.012;8.610;2024-03-02T03:16:48;3.00;99.90
25320;DHT22;13256;49.012;8.610;2024-03-02T03:19:17;2.90;99.90
25320;DHT22;13256;49.012;8.610;2024-03-02T03:21:43;2.90;99.90
25320;DHT22;13256;49.012;8.610;2024-03-02T03:24:13;3.00;99.90
25320;DHT22;13256;49.012;8.610;2024-03-02T03:26:43;3.00;99.90
25320;DHT22;13256;49.012;8.610;2024-03-02T03:29:10;3.00;99.90
25320;DHT22;13256;49.012;8.610;2024-03-02T03:31:39;3.00;99.90
25320;DHT22;13256;49.012;8.610;2024-03-02T03:34:06;2.90;99.90
25320;DHT22;13256;49.012;8.610;2024-03-02T03:36:33;2.80;99.90
25320;DHT22;13256;49.012;8.610;2024-03-02T03:39:00;2.80;99.90
25320;DHT22;13256;49.012;8.610;2024-03-02T03:41:28;2.70;99.90
25320;DHT22;13256;49.012;8.610;2024-03-02T03:43:54;2.70;99.90
25320;DHT22;13256;49.012;8.610;2024-03-02T03:46:21;2.70;99.90
25320;DHT22;13256;49.012;8.610;2024-03-02T03:48:48;2.70;99.90
25320;DHT22;13256;49.012;8.610;2024-03-02T03:51:17;2.70;99.90
25320;DHT22;13256;49.012;8.610;2024-03-02T03:53:43;2.70;99.90
25320;DHT22;13256;49.012;8.610;2024-03-02T03:56:11;2.70;99.90
25320;DHT22;13256;49.012;8.610;2024-03-02T03:58:38;2.70;99.90
25320;DHT22;13256;49.012;8.610;2024-03-02T04:01:07;2.70;99.90
25320;DHT22;13256;49.012;8.610;2024-03-02T04:03:38;2.80;99.90
25320;DHT22;13256;49.012;8.610;2024-03-02T04:06:06;2.80;99.90
25320;DHT22;13256;49.012;8.610;2024-03-02T04:08:33;2.70;99.90
25320;DHT22;13256;49.012;8.610;2024-03-02T04:11:01;2.70;99.90
25320;DHT22;13256;49.012;8.610;2024-03-02T04:13:30;2.80;99.90
25320;DHT22;13256;49.012;8.610;2024-03-02T04:15:59;2.80;99.90
25320;DHT22;13256;49.012;8.610;2024-03-02T04:18:26;2.80;99.90
25320;DHT22;13256;49.012;8.610;2024-03-02T04:20:54;2.80;99.90
25320;DHT22;13256;49.012;8.610;2024-03-02T04:23:22;2.80;99.90
25320;DHT22;13256;49.012;8.610;2024-03-02T04:25:54;2.80;99.90
25320;DHT22;13256;49.012;8.610;2024-03-02T04:28:23;2.70;99.90
25320;DHT22;13256;49.012;8.610;2024-03-02T04:30:51;2.70;99.90
25320;DHT22;13256;49.012;8.610;2024-03-02T04:33:20;2.70;99.90
25320;DHT22;13256;49.012;8.610;2024-03-02T04:35:50;2.70;99.90
25320;DHT22;13256;49.012;8.610;2024-03-02T04:38:16;2.70;99.90
25320;DHT22;13256;49.012;8.610;2024-03-02T04:40:43;2.70;99.90
25320;DHT22;13256;49.012;8.610;2024-03-02T04:43:10;2.70;99.90
25320;DHT22;13256;49.012;8.610;2024-03-02T04:45:37;2.70;99.90
25320;DHT22;13256;49.012;8.610;2024-03-02T04:48:04;2.70;99.90
25320;DHT22;13256;49.012;8.610;2024-03-02T04:50:33;2.70;99.90
25320;DHT22;13256;49.012;8.610;2024-03-02T04:53:00;2.60;99.90
25320;DHT22;13256;49.012;8.610;2024-03-02T04:55:26;2.60;99.90
25320;DHT22;13256;49.012;8.610;2024-03-02T04:58:16;2.60;99.90
25320;DHT22;13256;49.012;8.610;2024-03-02T05:00:42;2.60;99.90
25320;DHT22;13256;49.012;8.610;2024-03-02T05:03:09;2.60;99.90
25320;DHT22;13256;49.012;8.610;2024-03-02T05:05:36;2.60;99.90
25320;DHT22;13256;49.012;8.610;2024-03-02T05:08:03;2.60;99.90
25320;DHT22;13256;49.012;8.610;2024-03-02T05:10:32;2.60;99.90
25320;DHT22;13256;49.012;8.610;2024-03-02T05:13:06;2.60;99.90
25320;DHT22;13256;49.012;8.610;2024-03-02T05:15:32;2.50;99.90
25320;DHT22;13256;49.012;8.610;2024-03-02T05:17:59;2.60;99.90
25320;DHT22;13256;49.012;8.610;2024-03-02T05:20:28;2.60;99.90
25320;DHT22;13256;49.012;8.610;2024-03-02T05:22:56;2.60;99.90
25320;DHT22;13256;49.012;8.610;2024-03-02T05:25:30;2.60;99.90
25320;DHT22;13256;49.012;8.610;2024-03-02T05:27:56;2.60;99.90
25320;DHT22;13256;49.012;8.610;2024-03-02T05:30:53;2.60;99.90
25320;DHT22;13256;49.012;8.610;2024-03-02T05:33:21;2.60;99.90
25320;DHT22;13256;49.012;8.610;2024-03-02T05:35:48;2.60;99.90
25320;DHT22;13256;49.012;8.610;2024-03-02T05:38:18;2.60;99.90
25320;DHT22;13256;49.012;8.610;2024-03-02T05:40:45;2.60;99.90
25320;DHT22;13256;49.012;8.610;2024-03-02T05:43:11;2.50;99.90
25320;DHT22;13256;49.012;8.610;2024-03-02T05:45:39;2.50;99.90
25320;DHT22;13256;49.012;8.610;2024-03-02T05:48:08;2.50;99.90
25320;DHT22;13256;49.012;8.610;2024-03-02T05:50:35;2.40;99.90
25320;DHT22;13256;49.012;8.610;2024-03-02T05:53:02;2.30;99.90
25320;DHT22;13256;49.012;8.610;2024-03-02T05:55:28;2.30;99.90
25320;DHT22;13256;49.012;8.610;2024-03-02T05:57:55;2.20;99.90
25320;DHT22;13256;49.012;8.610;2024-03-02T06:00:44;2.20;99.90
25320;DHT22;13256;49.012;8.610;2024-03-02T06:03:11;2.20;99.90
25320;DHT22;13256;49.012;8.610;2024-03-02T06:05:40;2.20;99.90
25320;DHT22;13256;49.012;8.610;2024-03-02T06:08:07;2.20;99.90
25320;DHT22;13256;49.012;8.610;2024-03-02T06:10:33;2.10;99.90
25320;DHT22;13256;49.012;8.610;2024-03-02T06:13:03;2.10;99.90
25320;DHT22;13256;49.012;8.610;2024-03-02T06:15:43;2.10;99.90
25320;DHT22;13256;49.012;8.610;2024-03-02T06:24:09;2.10;99.90
25320;DHT22;13256;49.012;8.610;2024-03-02T06:26:36;2.10;99.90
25320;DHT22;13256;49.012;8.610;2024-03-02T06:29:03;2.20;99.90
25320;DHT22;13256;49.012;8.610;2024-03-02T06:31:32;2.20;99.90
25320;DHT22;13256;49.012;8.610;2024-03-02T06:33:59;2.20;99.90
25320;DHT22;13256;49.012;8.610;2024-03-02T06:36:25;2.20;99.90
25320;DHT22;13256;49.012;8.610;2024-03-02T06:38:52;2.20;99.90
25320;DHT22;13256;49.012;8.610;2024-03-02T06:41:20;2.20;99.90
25320;DHT22;13256;49.012;8.610;2024-03-02T06:43:47;2.20;99.90
25320;DHT22;13256;49.012;8.610;2024-03-02T06:46:25;2.30;99.90
25320;DHT22;13256;49.012;8.610;2024-03-02T06:48:52;2.30;99.90
25320;DHT22;13256;49.012;8.610;2024-03-02T06:51:19;2.30;99.90
25320;DHT22;13256;49.012;8.610;2024-03-02T06:53:46;2.30;99.90
25320;DHT22;13256;49.012;8.610;2024-03-02T06:56:13;2.30;99.90
25320;DHT22;13256;49.012;8.610;2024-03-02T06:58:42;2.40;99.90
25320;DHT22;13256;49.012;8.610;2024-03-02T07:01:09;2.30;99.90
25320;DHT22;13256;49.012;8.610;2024-03-02T07:03:36;2.30;99.90
25320;DHT22;13256;49.012;8.610;2024-03-02T07:06:08;2.30;99.90
25320;DHT22;13256;49.012;8.610;2024-03-02T07:08:35;2.20;99.90
25320;DHT22;13256;49.012;8.610;2024-03-02T07:11:02;2.20;99.90
25320;DHT22;13256;49.012;8.610;2024-03-02T07:13:31;2.20;99.90
25320;DHT22;13256;49.012;8.610;2024-03-02T07:15:59;2.20;99.90
25320;DHT22;13256;49.012;8.610;2024-03-02T07:18:35;2.20;99.90
25320;DHT22;13256;49.012;8.610;2024-03-02T07:21:12;2.30;99.90
25320;DHT22;13256;49.012;8.610;2024-03-02T07:23:39;2.30;99.90
25320;DHT22;13256;49.012;8.610;2024-03-02T07:26:05;2.30;99.90
25320;DHT22;13256;49.012;8.610;2024-03-02T07:28:37;2.30;99.90
25320;DHT22;13256;49.012;8.610;2024-03-02T07:31:06;2.30;99.90
25320;DHT22;13256;49.012;8.610;2024-03-02T07:33:33;2.40;99.90
25320;DHT22;13256;49.012;8.610;2024-03-02T07:36:26;2.50;99.90
25320;DHT22;13256;49.012;8.610;2024-03-02T07:38:53;2.50;99.90
25320;DHT22;13256;49.012;8.610;2024-03-02T07:41:20;2.60;99.90
25320;DHT22;13256;49.012;8.610;2024-03-02T07:43:48;2.70;99.90
25320;DHT22;13256;49.012;8.610;2024-03-02T07:46:16;2.80;99.90
25320;DHT22;13256;49.012;8.610;2024-03-02T07:48:47;2.90;99.90
25320;DHT22;13256;49.012;8.610;2024-03-02T07:51:14;3.10;99.90
25320;DHT22;13256;49.012;8.610;2024-03-02T07:53:41;3.20;99.90
25320;DHT22;13256;49.012;8.610;2024-03-02T07:56:08;3.40;99.90
25320;DHT22;13256;49.012;8.610;2024-03-02T07:58:34;3.60;99.90
25320;DHT22;13256;49.012;8.610;2024-03-02T08:01:04;3.70;99.90
25320;DHT22;13256;49.012;8.610;2024-03-02T08:03:32;4.00;99.90
25320;DHT22;13256;49.012;8.610;2024-03-02T08:06:00;4.10;99.90
25320;DHT22;13256;49.012;8.610;2024-03-02T08:08:28;4.30;99.90
25320;DHT22;13256;49.012;8.610;2024-03-02T08:10:56;4.50;99.90
25320;DHT22;13256;49.012;8.610;2024-03-02T08:13:26;4.80;99.90
25320;DHT22;13256;49.012;8.610;2024-03-02T08:15:52;5.00;99.90
25320;DHT22;13256;49.012;8.610;2024-03-02T08:18:20;5.20;99.90
25320;DHT22;13256;49.012;8.610;2024-03-02T08:20:48;5.50;99.90
25320;DHT22;13256;49.012;8.610;2024-03-02T08:23:14;5.70;99.90
25320;DHT22;13256;49.012;8.610;2024-03-02T08:25:42;6.00;99.90
25320;DHT22;13256;49.012;8.610;2024-03-02T08:28:09;6.30;99.90
25320;DHT22;13256;49.012;8.610;2024-03-02T08:36:27;7.10;99.90
25320;DHT22;13256;49.012;8.610;2024-03-02T08:44:44;8.10;99.90
25320;DHT22;13256;49.012;8.610;2024-03-02T08:50:03;8.90;99.90
25320;DHT22;13256;49.012;8.610;2024-03-02T08:52:31;9.20;99.90
25320;DHT22;13256;49.012;8.610;2024-03-02T08:54:59;9.50;99.90
25320;DHT22;13256;49.012;8.610;2024-03-02T08:57:29;9.70;99.90
25320;DHT22;13256;49.012;8.610;2024-03-02T08:59:56;9.90;99.90
25320;DHT22;13256;49.012;8.610;2024-03-02T09:02:23;10.10;99.90
25320;DHT22;13256;49.012;8.610;2024-03-02T09:04:50;10.40;99.90
25320;DHT22;13256;49.012;8.610;2024-03-02T09:07:19;10.60;99.90
25320;DHT22;13256;49.012;8.610;2024-03-02T09:09:52;10.80;99.90
25320;DHT22;13256;49.012;8.610;2024-03-02T09:12:24;11.10;99.90
25320;DHT22;13256;49.012;8.610;2024-03-02T09:14:50;11.30;99.90
25320;DHT22;13256;49.012;8.610;2024-03-02T09:17:21;11.50;99.90
25320;DHT22;13256;49.012;8.610;2024-03-02T09:19:47;11.70;99.90
25320;DHT22;13256;49.012;8.610;2024-03-02T09:22:14;11.90;99.90
25320;DHT22;13256;49.012;8.610;2024-03-02T09:24:42;12.10;99.90
25320;DHT22;13256;49.012;8.610;2024-03-02T09:27:12;12.40;99.90
25320;DHT22;13256;49.012;8.610;2024-03-02T09:29:39;12.60;99.90
25320;DHT22;13256;49.012;8.610;2024-03-02T09:32:11;12.80;99.90
25320;DHT22;13256;49.012;8.610;2024-03-02T09:34:40;13.00;99.90
25320;DHT22;13256;49.012;8.610;2024-03-02T09:37:10;13.20;99.90
25320;DHT22;13256;49.012;8.610;2024-03-02T09:39:43;13.40;99.90
25320;DHT22;13256;49.012;8.610;2024-03-02T09:42:13;13.60;99.90
25320;DHT22;13256;49.012;8.610;2024-03-02T09:44:48;13.90;99.90
25320;DHT22;13256;49.012;8.610;2024-03-02T09:56:58;14.80;99.90
25320;DHT22;13256;49.012;8.610;2024-03-02T09:59:45;15.00;99.90
25320;DHT22;13256;49.012;8.610;2024-03-02T10:02:12;15.20;99.90
25320;DHT22;13256;49.012;8.610;2024-03-02T10:04:43;15.30;99.90
25320;DHT22;13256;49.012;8.610;2024-03-02T10:13:25;15.70;99.90
25320;DHT22;13256;49.012;8.610;2024-03-02T10:15:53;15.90;99.90
25320;DHT22;13256;49.012;8.610;2024-03-02T10:21:31;15.80;99.90
25320;DHT22;13256;49.012;8.610;2024-03-02T10:24:06;16.00;99.90
25320;DHT22;13256;49.012;8.610;2024-03-02T10:26:59;16.20;99.90
25320;DHT22;13256;49.012;8.610;2024-03-02T10:29:29;16.50;99.90
25320;DHT22;13256;49.012;8.610;2024-03-02T10:31:56;16.70;99.90
25320;DHT22;13256;49.012;8.610;2024-03-02T10:34:31;16.90;99.90
25320;DHT22;13256;49.012;8.610;2024-03-02T10:37:00;17.10;99.90
25320;DHT22;13256;49.012;8.610;2024-03-02T10:39:32;17.20;99.90
25320;DHT22;13256;49.012;8.610;2024-03-02T10:42:03;17.10;99.90
25320;DHT22;13256;49.012;8.610;2024-03-02T10:44:33;17.20;99.90
25320;DHT22;13256;49.012;8.610;2024-03-02T10:47:01;17.30;99.90
25320;DHT22;13256;49.012;8.610;2024-03-02T10:49:31;17.50;99.90
25320;DHT22;13256;49.012;8.610;2024-03-02T10:51:59;17.60;98.10
25320;DHT22;13256;49.012;8.610;2024-03-02T10:54:27;17.50;98.50
25320;DHT22;13256;49.012;8.610;2024-03-02T10:57:08;17.60;98.10
25320;DHT22;13256;49.012;8.610;2024-03-02T10:59:51;17.80;97.50
25320;DHT22;13256;49.012;8.610;2024-03-02T11:11:15;17.80;97.60
25320;DHT22;13256;49.012;8.610;2024-03-02T11:14:14;18.00;95.90
25320;DHT22;13256;49.012;8.610;2024-03-02T11:16:45;18.10;96.50
25320;DHT22;13256;49.012;8.610;2024-03-02T11:19:16;18.30;95.60
25320;DHT22;13256;49.012;8.610;2024-03-02T11:21:45;18.60;94.90
25320;DHT22;13256;49.012;8.610;2024-03-02T11:26:51;18.70;93.10
25320;DHT22;13256;49.012;8.610;2024-03-02T11:32:15;18.90;94.30
25320;DHT22;13256;49.012;8.610;2024-03-02T11:34:46;18.80;92.90
25320;DHT22;13256;49.012;8.610;2024-03-02T11:37:40;19.10;93.00
25320;DHT22;13256;49.012;8.610;2024-03-02T11:43:10;19.60;91.10
25320;DHT22;13256;49.012;8.610;2024-03-02T11:45:59;19.90;91.10
25320;DHT22;13256;49.012;8.610;2024-03-02T11:48:29;20.10;90.40
25320;DHT22;13256;49.012;8.610;2024-03-02T11:51:16;20.20;90.30
25320;DHT22;13256;49.012;8.610;2024-03-02T11:57:18;20.10;88.50
25320;DHT22;13256;49.012;8.610;2024-03-02T12:00:02;20.10;86.00
25320;DHT22;13256;49.012;8.610;2024-03-02T12:02:34;19.80;85.60
25320;DHT22;13256;49.012;8.610;2024-03-02T12:05:24;19.80;88.20
25320;DHT22;13256;49.012;8.610;2024-03-02T12:08:00;19.90;88.30
25320;DHT22;13256;49.012;8.610;2024-03-02T12:10:37;20.10;85.80
25320;DHT22;13256;49.012;8.610;2024-03-02T12:13:07;20.40;87.70
25320;DHT22;13256;49.012;8.610;2024-03-02T12:15:39;20.60;86.30
25320;DHT22;13256;49.012;8.610;2024-03-02T12:18:11;20.50;87.30
25320;DHT22;13256;49.012;8.610;2024-03-02T12:20:39;20.50;87.40
25320;DHT22;13256;49.012;8.610;2024-03-02T12:23:11;20.50;85.60
25320;DHT22;13256;49.012;8.610;2024-03-02T12:26:07;20.50;85.10
25320;DHT22;13256;49.012;8.610;2024-03-02T12:28:37;20.20;85.70
25320;DHT22;13256;49.012;8.610;2024-03-02T12:31:05;20.30;85.30
25320;DHT22;13256;49.012;8.610;2024-03-02T12:33:34;20.40;87.10
25320;DHT22;13256;49.012;8.610;2024-03-02T12:36:02;20.60;85.00
25320;DHT22;13256;49.012;8.610;2024-03-02T12:38:30;20.80;85.00
25320;DHT22;13256;49.012;8.610;2024-03-02T12:40:56;20.80;81.80
25320;DHT22;13256;49.012;8.610;2024-03-02T12:43:33;20.80;82.50
25320;DHT22;13256;49.012;8.610;2024-03-02T12:46:05;20.90;83.10
25320;DHT22;13256;49.012;8.610;2024-03-02T12:48:35;21.10;83.70
25320;DHT22;13256;49.012;8.610;2024-03-02T12:51:02;21.40;83.40
25320;DHT22;13256;49.012;8.610;2024-03-02T12:53:32;21.60;82.20
25320;DHT22;13256;49.012;8.610;2024-03-02T12:56:00;21.70;82.60
25320;DHT22;13256;49.012;8.610;2024-03-02T12:58:30;21.90;82.20
25320;DHT22;13256;49.012;8.610;2024-03-02T13:01:08;22.10;79.90
25320;DHT22;13256;49.012;8.610;2024-03-02T13:03:39;22.20;80.50
25320;DHT22;13256;49.012;8.610;2024-03-02T13:06:08;22.30;80.70
25320;DHT22;13256;49.012;8.610;2024-03-02T13:11:43;22.10;77.00
25320;DHT22;13256;49.012;8.610;2024-03-02T13:14:10;21.50;75.20
25320;DHT22;13256;49.012;8.610;2024-03-02T13:16:44;21.50;77.70
25320;DHT22;13256;49.012;8.610;2024-03-02T13:19:15;21.30;76.40
25320;DHT22;13256;49.012;8.610;2024-03-02T13:21:51;21.10;76.80
25320;DHT22;13256;49.012;8.610;2024-03-02T13:24:19;21.30;75.60
25320;DHT22;13256;49.012;8.610;2024-03-02T13:26:49;21.50;76.00
25320;DHT22;13256;49.012;8.610;2024-03-02T13:29:26;21.70;77.50
25320;DHT22;13256;49.012;8.610;2024-03-02T13:31:53;22.00;76.20
25320;DHT22;13256;49.012;8.610;2024-03-02T13:34:21;22.00;75.20
25320;DHT22;13256;49.012;8.610;2024-03-02T13:36:49;21.90;74.00
25320;DHT22;13256;49.012;8.610;2024-03-02T13:39:21;21.80;74.80
25320;DHT22;13256;49.012;8.610;2024-03-02T13:41:51;21.60;74.50
25320;DHT22;13256;49.012;8.610;2024-03-02T13:44:32;21.40;76.10
25320;DHT22;13256;49.012;8.610;2024-03-02T13:47:02;21.30;77.80
25320;DHT22;13256;49.012;8.610;2024-03-02T13:49:29;21.20;77.00
25320;DHT22;13256;49.012;8.610;2024-03-02T13:52:05;20.90;76.90
25320;DHT22;13256;49.012;8.610;2024-03-02T13:54:44;20.60;75.90
25320;DHT22;13256;49.012;8.610;2024-03-02T13:57:20;20.60;76.90
25320;DHT22;13256;49.012;8.610;2024-03-02T13:59:51;20.40;77.30
25320;DHT22;13256;49.012;8.610;2024-03-02T14:02:21;20.30;77.60
25320;DHT22;13256;49.012;8.610;2024-03-02T14:04:49;20.10;78.10
25320;DHT22;13256;49.012;8.610;2024-03-02T14:07:16;20.00;79.80
25320;DHT22;13256;49.012;8.610;2024-03-02T14:09:49;20.00;80.70
25320;DHT22;13256;49.012;8.610;2024-03-02T14:12:15;20.10;77.50
25320;DHT22;13256;49.012;8.610;2024-03-02T14:14:42;20.20;79.10
25320;DHT22;13256;49.012;8.610;2024-03-02T14:17:08;20.00;78.40
25320;DHT22;13256;49.012;8.610;2024-03-02T14:19:40;19.90;77.50
25320;DHT22;13256;49.012;8.610;2024-03-02T14:22:07;19.90;78.10
25320;DHT22;13256;49.012;8.610;2024-03-02T14:24:34;20.00;78.40
25320;DHT22;13256;49.012;8.610;2024-03-02T14:27:01;19.90;79.80
25320;DHT22;13256;49.012;8.610;2024-03-02T14:29:46;19.70;79.80
25320;DHT22;13256;49.012;8.610;2024-03-02T14:32:13;19.40;77.90
25320;DHT22;13256;49.012;8.610;2024-03-02T14:34:39;19.00;79.20
25320;DHT22;13256;49.012;8.610;2024-03-02T14:37:06;18.90;80.10
25320;DHT22;13256;49.012;8.610;2024-03-02T14:39:33;18.80;80.20
25320;DHT22;13256;49.012;8.610;2024-03-02T14:42:03;18.50;80.30
25320;DHT22;13256;49.012;8.610;2024-03-02T14:44:30;18.20;81.50
25320;DHT22;13256;49.012;8.610;2024-03-02T14:46:58;18.10;82.40
25320;DHT22;13256;49.012;8.610;2024-03-02T14:49:25;17.80;83.30
25320;DHT22;13256;49.012;8.610;2024-03-02T14:51:52;17.70;84.10
25320;DHT22;13256;49.012;8.610;2024-03-02T14:54:19;17.50;84.10
25320;DHT22;13256;49.012;8.610;2024-03-02T14:56:46;17.40;83.60
25320;DHT22;13256;49.012;8.610;2024-03-02T14:59:13;17.30;84.20
25320;DHT22;13256;49.012;8.610;2024-03-02T15:01:39;17.20;84.80
25320;DHT22;13256;49.012;8.610;2024-03-02T15:04:06;17.10;85.30
25320;DHT22;13256;49.012;8.610;2024-03-02T15:06:40;17.00;85.30
25320;DHT22;13256;49.012;8.610;2024-03-02T15:09:07;16.90;85.50
25320;DHT22;13256;49.012;8.610;2024-03-02T15:17:19;16.70;86.80
25320;DHT22;13256;49.012;8.610;2024-03-02T15:19:47;16.70;87.20
25320;DHT22;13256;49.012;8.610;2024-03-02T15:22:27;16.60;88.60
25320;DHT22;13256;49.012;8.610;2024-03-02T15:24:53;16.50;89.20
25320;DHT22;13256;49.012;8.610;2024-03-02T15:27:20;16.40;89.80
25320;DHT22;13256;49.012;8.610;2024-03-02T15:29:50;16.40;90.20
25320;DHT22;13256;49.012;8.610;2024-03-02T15:32:20;16.40;90.00
25320;DHT22;13256;49.012;8.610;2024-03-02T15:34:53;16.40;90.10
25320;DHT22;13256;49.012;8.610;2024-03-02T15:37:19;16.40;90.60
25320;DHT22;13256;49.012;8.610;2024-03-02T15:39:47;16.30;90.80
25320;DHT22;13256;49.012;8.610;2024-03-02T15:42:14;16.30;90.70
25320;DHT22;13256;49.012;8.610;2024-03-02T15:44:49;16.10;91.50
25320;DHT22;13256;49.012;8.610;2024-03-02T15:47:16;16.00;91.60
25320;DHT22;13256;49.012;8.610;2024-03-02T15:52:55;16.00;91.80
25320;DHT22;13256;49.012;8.610;2024-03-02T15:55:28;15.90;92.30
25320;DHT22;13256;49.012;8.610;2024-03-02T15:57:55;15.90;92.80
25320;DHT22;13256;49.012;8.610;2024-03-02T16:00:24;15.80;93.00
25320;DHT22;13256;49.012;8.610;2024-03-02T16:02:51;15.80;93.20
25320;DHT22;13256;49.012;8.610;2024-03-02T16:05:17;15.70;93.50
25320;DHT22;13256;49.012;8.610;2024-03-02T16:07:45;15.60;93.80
25320;DHT22;13256;49.012;8.610;2024-03-02T16:10:12;15.50;94.40
25320;DHT22;13256;49.012;8.610;2024-03-02T16:12:39;15.40;95.00
25320;DHT22;13256;49.012;8.610;2024-03-02T16:15:06;15.30;95.20
25320;DHT22;13256;49.012;8.610;2024-03-02T16:17:45;15.30;95.90
25320;DHT22;13256;49.012;8.610;2024-03-02T16:20:21;15.20;96.30
25320;DHT22;13256;49.012;8.610;2024-03-02T16:22:56;15.20;96.40
25320;DHT22;13256;49.012;8.610;2024-03-02T16:25:25;15.20;97.40
25320;DHT22;13256;49.012;8.610;2024-03-02T16:27:52;15.10;98.00
25320;DHT22;13256;49.012;8.610;2024-03-02T16:30:20;15.00;98.00
25320;DHT22;13256;49.012;8.610;2024-03-02T16:32:49;15.00;98.40
25320;DHT22;13256;49.012;8.610;2024-03-02T16:35:16;14.90;99.00
25320;DHT22;13256;49.012;8.610;2024-03-02T16:37:43;14.70;99.30
25320;DHT22;13256;49.012;8.610;2024-03-02T16:40:09;14.60;99.90
25320;DHT22;13256;49.012;8.610;2024-03-02T16:42:36;14.50;99.90
25320;DHT22;13256;49.012;8.610;2024-03-02T16:45:03;14.40;99.90
25320;DHT22;13256;49.012;8.610;2024-03-02T16:59:10;13.70;99.90
25320;DHT22;13256;49.012;8.610;2024-03-02T17:01:38;13.50;99.90
25320;DHT22;13256;49.012;8.610;2024-03-02T17:04:11;13.50;99.90
25320;DHT22;13256;49.012;8.610;2024-03-02T17:06:42;13.50;99.90
25320;DHT22;13256;49.012;8.610;2024-03-02T17:09:09;13.40;99.90
25320;DHT22;13256;49.012;8.610;2024-03-02T17:11:35;13.30;99.90
25320;DHT22;13256;49.012;8.610;2024-03-02T17:14:02;13.20;99.90
25320;DHT22;13256;49.012;8.610;2024-03-02T17:16:30;13.20;99.90
25320;DHT22;13256;49.012;8.610;2024-03-02T17:19:00;13.00;99.90
25320;DHT22;13256;49.012;8.610;2024-03-02T17:21:28;12.90;99.90
25320;DHT22;13256;49.012;8.610;2024-03-02T17:23:55;12.80;99.90
25320;DHT22;13256;49.012;8.610;2024-03-02T17:26:22;12.70;99.90
25320;DHT22;13256;49.012;8.610;2024-03-02T17:28:50;12.70;99.90
25320;DHT22;13256;49.012;8.610;2024-03-02T17:31:20;12.60;99.90
25320;DHT22;13256;49.012;8.610;2024-03-02T17:33:48;12.60;99.90
25320;DHT22;13256;49.012;8.610;2024-03-02T17:36:16;12.60;99.90